Weather History for Newton, KS

Change the Weather History Date:

Sunday, February 17, 2013

  Actual Average Record
Temperature  
Mean Temperature 45 °F -  
Max Temperature 66 °F 45 °F 73 °F (2011)
Min Temperature 24 °F 27 °F 10 °F (2001)
Degree Days  
Heating Degree Days 20    
Moisture  
Dew Point 24 °F    
Average Humidity 47    
Maximum Humidity 80    
Minimum Humidity 21    
Precipitation  
Precipitation 0.00 in - - ()
Sea Level Pressure  
Sea Level Pressure 29.82 in    
Wind  
Wind Speed 11 mph (SSE)    
Max Wind Speed 29 mph    
Max Gust Speed 38 mph    
Visibility 10 miles    
Events      
Averages and records for this station are not official NWS values.
T = Trace of Precipitation, MM = Missing Value Source: NWS Daily Summary

Daily Weather History Graph

Daily Weather History Graph

Search for Another Location

Airport:

Trip Planner

Search our weather history database for the weather conditions in past years. The results will help you decide how hot, cold, wet, or windy it might be!

Date:

Astronomy

Feb. 17, 2013 Rise Set
Actual Time 7:16 AM CST 6:10 PM CST
Civil Twilight 6:49 AM CST 6:37 PM CST
Nautical Twilight 6:18 AM CST 7:07 PM CST
Astronomical Twilight 5:48 AM CST 7:38 PM CST
Moon 11:17 AM CST (2/17) 12:59 AM CST (2/17)
Length of Visible Light 11h 47m
Length of Day
10h 53m
Waxing Crescent, 49% of the Moon is Illuminated
Feb 17
Waxing Crescent
Feb 17
First Quarter
Feb 25
Full
Mar 4
Last Quarter
Mar 11
New

Hourly Weather History & Observations

Time (CST) Temp. Windchill Dew Point Humidity Pressure Visibility Wind Dir Wind Speed Gust Speed Precip Events Conditions
12:15 AM 30.2 °F 21.9 °F 19.4 °F 64% 30.00 in 10.0 mi SE 9.2 mph - N/A   Clear
12:35 AM 28.4 °F 20.4 °F 19.4 °F 69% 30.00 in 10.0 mi SE 8.1 mph - N/A   Clear
12:55 AM 28.4 °F 19.7 °F 19.4 °F 69% 30.00 in 10.0 mi SE 9.2 mph - N/A   Clear
1:15 AM 28.4 °F 20.4 °F 19.4 °F 69% 30.00 in 10.0 mi SE 8.1 mph - N/A   Clear
1:35 AM 28.4 °F 20.4 °F 19.4 °F 69% 29.99 in 10.0 mi ESE 8.1 mph - N/A   Clear
1:55 AM 26.6 °F 18.2 °F 17.6 °F 69% 29.99 in 10.0 mi SE 8.1 mph - N/A   Clear
2:15 AM 26.6 °F 18.2 °F 17.6 °F 69% 29.99 in 10.0 mi SE 8.1 mph - N/A   Clear
2:35 AM 26.6 °F 18.2 °F 17.6 °F 69% 29.99 in 10.0 mi SE 8.1 mph - N/A   Clear
2:55 AM 26.6 °F 18.2 °F 17.6 °F 69% 29.98 in 10.0 mi SSE 8.1 mph - N/A   Clear
3:15 AM 26.6 °F 18.2 °F 17.6 °F 69% 29.98 in 10.0 mi SE 8.1 mph - N/A   Clear
3:35 AM 24.8 °F 16.9 °F 17.6 °F 74% 29.98 in 10.0 mi SE 6.9 mph - N/A   Clear
3:55 AM 26.6 °F 18.2 °F 17.6 °F 69% 29.97 in 10.0 mi ESE 8.1 mph - N/A   Clear
4:15 AM 26.6 °F 18.2 °F 17.6 °F 69% 29.96 in 10.0 mi SE 8.1 mph - N/A   Clear
4:35 AM 24.8 °F 16.9 °F 15.8 °F 69% 29.96 in 10.0 mi SSE 6.9 mph - N/A   Clear
4:55 AM 24.8 °F 16.9 °F 15.8 °F 69% 29.96 in 10.0 mi SE 6.9 mph - N/A   Clear
5:15 AM 24.8 °F 16.9 °F 17.6 °F 74% 29.96 in 10.0 mi SE 6.9 mph - N/A   Clear
5:35 AM 24.8 °F 15.3 °F 17.6 °F 74% 29.96 in 10.0 mi SE 9.2 mph - N/A   Clear
5:55 AM 24.8 °F 16.1 °F 17.6 °F 74% 29.95 in 10.0 mi SE 8.1 mph - N/A   Clear
6:15 AM 24.8 °F 15.3 °F 19.4 °F 80% 29.95 in 10.0 mi SSE 9.2 mph - N/A   Clear
6:35 AM 24.8 °F 14.6 °F 19.4 °F 80% 29.95 in 10.0 mi SSE 10.4 mph - N/A   Clear
6:55 AM 24.8 °F 14.6 °F 19.4 °F 80% 29.94 in 10.0 mi SSE 10.4 mph - N/A   Clear
7:15 AM 24.8 °F 16.1 °F 17.6 °F 74% 29.94 in 10.0 mi SSE 8.1 mph - N/A   Clear
7:35 AM 24.8 °F 16.9 °F 19.4 °F 80% 29.93 in 10.0 mi SSE 6.9 mph - N/A   Clear
8:15 AM 30.2 °F 23.4 °F 23.0 °F 75% 29.93 in 10.0 mi South 6.9 mph - N/A   Clear
8:35 AM 33.8 °F 28.6 °F 26.6 °F 75% 29.93 in 10.0 mi SSE 5.8 mph - N/A   Clear
8:55 AM 35.6 °F 29.2 °F 26.6 °F 70% 29.93 in 10.0 mi South 8.1 mph - N/A   Clear
9:15 AM 39.2 °F 32.5 °F 28.4 °F 65% 29.93 in 10.0 mi South 10.4 mph - N/A   Clear
9:35 AM 41.0 °F 34.3 °F 28.4 °F 61% 29.92 in 10.0 mi SSW 11.5 mph - N/A   Clear
9:55 AM 44.6 °F 38.4 °F 30.2 °F 57% 29.92 in 10.0 mi SSW 12.7 mph - N/A   Clear
10:15 AM 46.4 °F 41.1 °F 30.2 °F 53% 29.91 in 10.0 mi South 11.5 mph - N/A   Clear
10:35 AM 48.2 °F - 30.2 °F 50% 29.90 in 10.0 mi SSW 10.4 mph - N/A   Clear
10:55 AM 51.8 °F - 30.2 °F 44% 29.90 in 10.0 mi SSW 11.5 mph - N/A   Clear
11:15 AM 53.6 °F - 30.2 °F 41% 29.89 in 10.0 mi South 10.4 mph - N/A   Clear
11:35 AM 55.4 °F - 30.2 °F 38% 29.88 in 10.0 mi South 10.4 mph - N/A   Clear
11:55 AM 57.2 °F - 30.2 °F 36% 29.87 in 10.0 mi South 12.7 mph - N/A   Clear
12:15 PM 57.2 °F - 30.2 °F 36% 29.86 in 10.0 mi South 13.8 mph - N/A   Clear
12:35 PM 59.0 °F - 30.2 °F 34% 29.85 in 10.0 mi South 13.8 mph - N/A   Clear
12:55 PM 60.8 °F - 30.2 °F 31% 29.83 in 10.0 mi South 13.8 mph - N/A   Clear
1:15 PM 62.6 °F - 30.2 °F 30% 29.81 in 10.0 mi South 15.0 mph - N/A   Clear
1:35 PM 62.6 °F - 28.4 °F 27% 29.80 in 10.0 mi South 12.7 mph - N/A   Clear
1:55 PM 64.4 °F - 28.4 °F 26% 29.78 in 10.0 mi South 15.0 mph 18.4 mph N/A   Clear
2:15 PM 66.2 °F - 28.4 °F 24% 29.76 in 10.0 mi South 15.0 mph - N/A   Clear
2:35 PM 66.2 °F - 26.6 °F 23% 29.75 in 10.0 mi South 17.3 mph - N/A   Clear
2:55 PM 66.2 °F - 26.6 °F 23% 29.74 in 10.0 mi South 17.3 mph 20.7 mph N/A   Clear
3:15 PM 66.2 °F - 24.8 °F 21% 29.73 in 10.0 mi South 19.6 mph 24.2 mph N/A   Clear
3:35 PM 66.2 °F - 26.6 °F 23% 29.73 in 10.0 mi South 20.7 mph 27.6 mph N/A   Clear
3:55 PM 66.2 °F - 26.6 °F 23% 29.72 in 10.0 mi South 20.7 mph 26.5 mph N/A   Clear
4:15 PM 64.4 °F - 26.6 °F 24% 29.71 in 10.0 mi South 23.0 mph 27.6 mph N/A   Clear
4:35 PM 64.4 °F - 26.6 °F 24% 29.70 in 10.0 mi South 24.2 mph 32.2 mph N/A   Clear
4:55 PM 64.4 °F - 28.4 °F 26% 29.69 in 10.0 mi South 21.9 mph 29.9 mph N/A   Clear
5:15 PM 64.4 °F - 28.4 °F 26% 29.68 in 10.0 mi South 17.3 mph 24.2 mph N/A   Clear
5:35 PM 64.4 °F - 26.6 °F 24% 29.67 in 10.0 mi South 19.6 mph 27.6 mph N/A   Clear
5:55 PM 64.4 °F - 24.8 °F 22% 29.67 in 10.0 mi South 18.4 mph 26.5 mph N/A   Clear
6:15 PM 62.6 °F - 23.0 °F 22% 29.67 in 10.0 mi South 18.4 mph 26.5 mph N/A   Clear
6:35 PM 60.8 °F - 23.0 °F 23% 29.67 in 10.0 mi South 21.9 mph 28.8 mph N/A   Clear
6:55 PM 60.8 °F - 24.8 °F 25% 29.68 in 10.0 mi South 19.6 mph - N/A   Clear
7:15 PM 59.0 °F - 24.8 °F 27% 29.67 in 10.0 mi South 20.7 mph 26.5 mph N/A   Clear
7:35 PM 57.2 °F - 24.8 °F 29% 29.67 in 10.0 mi South 20.7 mph 25.3 mph N/A   Clear
7:55 PM 57.2 °F - 24.8 °F 29% 29.67 in 10.0 mi South 18.4 mph - N/A   Clear
8:15 PM 57.2 °F - 24.8 °F 29% 29.67 in 10.0 mi South 15.0 mph 20.7 mph N/A   Clear
8:35 PM 57.2 °F - 24.8 °F 29% 29.66 in 10.0 mi South 15.0 mph 23.0 mph N/A   Clear
8:55 PM 55.4 °F - 26.6 °F 33% 29.65 in 10.0 mi South 18.4 mph - N/A   Clear
9:15 PM 55.4 °F - 24.8 °F 31% 29.65 in 10.0 mi South 16.1 mph - N/A   Clear
9:35 PM 55.4 °F - 24.8 °F 31% 29.65 in 10.0 mi SSE 12.7 mph - N/A   Clear
9:55 PM 51.8 °F - 24.8 °F 35% 29.64 in 10.0 mi South 13.8 mph - N/A   Clear
10:15 PM 50.0 °F - 24.8 °F 37% 29.63 in 10.0 mi South 16.1 mph - N/A   Clear
10:35 PM 50.0 °F - 24.8 °F 37% 29.62 in 10.0 mi SSE 15.0 mph - N/A   Clear
10:55 PM 48.2 °F - 24.8 °F 40% 29.61 in 10.0 mi South 16.1 mph - N/A   Clear
11:15 PM 51.8 °F - 26.6 °F 38% 29.60 in 10.0 mi South 21.9 mph 26.5 mph N/A   Clear
11:35 PM 53.6 °F - 26.6 °F 35% 29.59 in 10.0 mi South 26.5 mph 32.2 mph N/A   Clear
11:55 PM 53.6 °F - 26.6 °F 35% 29.57 in 10.0 mi South 28.8 mph 38.0 mph N/A   Clear